createdAt,value
2018-12-18T00:00:59.910Z,5.10
2018-12-18T00:03:44.745Z,5.10
2018-12-18T00:06:23.514Z,5.20
2018-12-18T00:09:04.708Z,5.20
2018-12-18T00:11:45.634Z,5.40
2018-12-18T00:14:30.912Z,5.50
2018-12-18T00:17:12.747Z,5.60
2018-12-18T00:19:57.406Z,5.60
2018-12-18T00:25:36.466Z,5.70
2018-12-18T00:28:14.507Z,5.80
2018-12-18T00:33:53.910Z,5.90
2018-12-18T00:36:40.130Z,5.90
2018-12-18T00:39:25.142Z,5.90
2018-12-18T00:42:08.393Z,5.90
2018-12-18T00:44:53.256Z,6.00
2018-12-18T00:47:44.297Z,6.00
2018-12-18T00:50:30.094Z,6.00
2018-12-18T00:53:08.849Z,6.00
2018-12-18T00:55:49.795Z,6.00
2018-12-18T00:58:29.276Z,6.00
2018-12-18T01:01:07.199Z,6.00
2018-12-18T01:03:53.262Z,6.00
2018-12-18T01:06:32.868Z,6.00
2018-12-18T01:09:10.018Z,6.00
2018-12-18T01:11:50.222Z,6.00
2018-12-18T01:14:35.514Z,6.00
2018-12-18T01:17:13.263Z,6.10
2018-12-18T01:20:02.582Z,6.10
2018-12-18T01:22:47.569Z,6.10
2018-12-18T01:25:36.570Z,6.00
2018-12-18T01:28:22.230Z,6.00
2018-12-18T01:31:10.921Z,6.00
2018-12-18T01:33:51.103Z,6.00
2018-12-18T01:36:29.609Z,6.00
2018-12-18T01:39:09.718Z,6.00
2018-12-18T01:41:57.547Z,6.00
2018-12-18T01:44:38.541Z,6.00
2018-12-18T01:47:23.846Z,5.90
2018-12-18T01:53:09.255Z,6.00
2018-12-18T01:55:54.227Z,6.00
2018-12-18T01:58:41.236Z,6.00
2018-12-18T02:01:18.270Z,6.00
2018-12-18T02:04:05.754Z,6.00
2018-12-18T02:06:48.423Z,6.00
2018-12-18T02:09:34.087Z,6.00
2018-12-18T02:12:17.640Z,6.00
2018-12-18T02:15:04.779Z,6.00
2018-12-18T02:17:43.093Z,6.00
2018-12-18T02:20:28.136Z,6.00
2018-12-18T02:22:57.609Z,6.00
2018-12-18T02:28:52.601Z,6.00
2018-12-18T02:31:40.306Z,6.10
2018-12-18T02:34:28.055Z,6.10
2018-12-18T02:37:15.125Z,6.10
2018-12-18T02:43:00.399Z,6.10
2018-12-18T02:45:46.015Z,6.20
2018-12-18T02:51:33.572Z,6.20
2018-12-18T02:54:19.371Z,6.20
2018-12-18T02:57:04.300Z,6.10
2018-12-18T02:59:43.827Z,6.10
2018-12-18T03:05:29.061Z,6.20
2018-12-18T03:11:03.834Z,6.20
2018-12-18T03:13:50.883Z,6.20
2018-12-18T03:16:36.001Z,6.20
2018-12-18T03:19:27.022Z,6.20
2018-12-18T03:22:11.879Z,6.20
2018-12-18T03:24:54.405Z,6.20
2018-12-18T03:27:40.761Z,6.20
2018-12-18T03:30:25.786Z,6.20
2018-12-18T03:33:13.068Z,6.30
2018-12-18T03:35:53.790Z,6.20
2018-12-18T03:38:39.264Z,6.20
2018-12-18T03:41:19.674Z,6.20
2018-12-18T03:44:01.720Z,6.20
2018-12-18T03:46:39.020Z,6.20
2018-12-18T03:49:25.013Z,6.20
2018-12-18T03:52:12.196Z,6.20
2018-12-18T03:54:57.047Z,6.20
2018-12-18T03:57:42.683Z,6.20
2018-12-18T04:00:21.555Z,6.20
2018-12-18T04:03:06.673Z,6.20
2018-12-18T04:05:54.789Z,6.20
2018-12-18T04:14:48.350Z,6.20
2018-12-18T04:17:34.139Z,6.20
2018-12-18T04:20:21.366Z,6.20
2018-12-18T04:23:02.749Z,6.20
2018-12-18T04:25:52.826Z,6.20
2018-12-18T04:28:38.414Z,6.20
2018-12-18T04:31:15.822Z,6.20
2018-12-18T04:34:02.411Z,6.10
2018-12-18T04:36:47.990Z,6.10
2018-12-18T04:39:33.047Z,6.10
2018-12-18T04:42:17.984Z,6.10
2018-12-18T04:47:58.304Z,6.00
2018-12-18T04:50:43.862Z,6.00
2018-12-18T04:56:29.318Z,6.00
2018-12-18T04:59:16.495Z,6.00
2018-12-18T05:04:57.345Z,5.90
2018-12-18T05:07:42.653Z,5.90
2018-12-18T05:10:24.268Z,5.90
2018-12-18T05:13:05.979Z,5.90
2018-12-18T05:15:58.331Z,5.80
2018-12-18T05:21:43.432Z,5.80
2018-12-18T05:24:20.861Z,5.90
2018-12-18T05:30:15.981Z,5.90
2018-12-18T05:33:01.068Z,5.90
2018-12-18T05:35:48.820Z,5.90
2018-12-18T05:38:36.580Z,5.90
2018-12-18T05:41:14.044Z,5.80
2018-12-18T05:44:07.133Z,5.80
2018-12-18T05:46:46.892Z,5.80
2018-12-18T05:49:26.461Z,5.80
2018-12-18T05:55:22.883Z,5.90
2018-12-18T05:58:04.481Z,5.80
2018-12-18T06:00:42.915Z,5.80
2018-12-18T06:03:28.244Z,5.80
2018-12-18T06:06:15.604Z,5.80
2018-12-18T06:09:03.323Z,5.80
2018-12-18T06:11:42.738Z,5.80
2018-12-18T06:14:31.424Z,5.80
2018-12-18T06:17:08.919Z,5.80
2018-12-18T06:22:50.543Z,5.70
2018-12-18T06:25:36.512Z,5.70
2018-12-18T06:28:26.464Z,5.70
2018-12-18T06:31:15.237Z,5.70
2018-12-18T06:34:03.907Z,5.60
2018-12-18T06:36:48.613Z,5.50
2018-12-18T06:39:34.317Z,5.50
2018-12-18T06:42:22.742Z,5.50
2018-12-18T06:45:10.418Z,5.50
2018-12-18T06:47:50.303Z,5.60
2018-12-18T06:50:34.257Z,5.60
2018-12-18T06:53:12.203Z,5.60
2018-12-18T06:59:10.129Z,5.70
2018-12-18T07:02:00.463Z,5.60
2018-12-18T07:04:44.933Z,5.70
2018-12-18T07:07:29.145Z,5.80
2018-12-18T07:10:14.255Z,5.80
2018-12-18T07:12:59.879Z,5.90
2018-12-18T07:15:39.139Z,5.90
2018-12-18T07:18:22.356Z,5.90
2018-12-18T07:21:18.196Z,5.90
2018-12-18T07:27:00.965Z,5.90
2018-12-18T07:29:40.489Z,5.90
2018-12-18T07:32:30.399Z,6.00
2018-12-18T07:35:23.318Z,6.00
2018-12-18T07:38:13.583Z,6.00
2018-12-18T07:41:01.147Z,6.10
2018-12-18T07:43:48.159Z,6.10
2018-12-18T07:49:23.089Z,6.10
2018-12-18T07:52:14.486Z,6.20
2018-12-18T07:55:04.484Z,6.20
2018-12-18T07:57:51.864Z,6.20
2018-12-18T08:00:30.114Z,6.20
2018-12-18T08:03:13.028Z,6.30
2018-12-18T08:05:52.123Z,6.30
2018-12-18T08:08:30.716Z,6.30
2018-12-18T08:11:11.329Z,6.30
2018-12-18T08:13:55.910Z,6.40
2018-12-18T08:22:39.048Z,6.40
2018-12-18T08:25:20.337Z,6.40
2018-12-18T08:31:03.181Z,6.50
2018-12-18T08:36:45.039Z,6.50
2018-12-18T08:39:23.833Z,6.50
2018-12-18T08:45:18.017Z,6.50
2018-12-18T08:48:10.051Z,6.60
2018-12-18T08:50:50.127Z,6.70
2018-12-18T08:53:38.281Z,6.70
2018-12-18T08:56:24.843Z,6.70
2018-12-18T08:59:02.430Z,6.70
2018-12-18T09:01:44.507Z,6.70
2018-12-18T09:04:22.184Z,6.80
2018-12-18T09:07:09.031Z,6.80
2018-12-18T09:09:57.465Z,6.80
2018-12-18T09:12:43.097Z,6.90
2018-12-18T09:15:33.475Z,6.90
2018-12-18T09:18:19.254Z,6.90
2018-12-18T09:20:56.258Z,7.00
2018-12-18T09:23:36.805Z,7.00
2018-12-18T09:26:26.785Z,7.00
2018-12-18T09:32:14.737Z,7.10
2018-12-18T09:37:45.214Z,7.10
2018-12-18T09:40:28.621Z,7.20
2018-12-18T09:44:20.990Z,7.20
2018-12-18T09:46:58.756Z,7.30
2018-12-18T09:49:52.641Z,7.30
2018-12-18T09:52:38.530Z,7.40
2018-12-18T09:55:16.141Z,7.50
2018-12-18T10:01:07.368Z,7.60
2018-12-18T10:06:54.956Z,7.60
2018-12-18T10:09:34.496Z,7.50
2018-12-18T10:12:17.097Z,7.60
2018-12-18T10:15:04.886Z,7.60
2018-12-18T10:27:21.449Z,7.90
2018-12-18T10:30:09.153Z,7.90
2018-12-18T10:35:51.919Z,7.90
2018-12-18T10:38:37.611Z,7.90
2018-12-18T10:41:14.582Z,7.80
2018-12-18T10:44:01.896Z,7.80
2018-12-18T10:46:47.250Z,7.70
2018-12-18T10:49:32.662Z,7.80
2018-12-18T10:52:10.307Z,7.80
2018-12-18T10:54:57.723Z,7.80
2018-12-18T10:57:43.338Z,7.80
2018-12-18T11:00:34.622Z,7.70
2018-12-18T11:03:13.904Z,7.70
2018-12-18T11:05:59.837Z,7.80
2018-12-18T11:08:40.211Z,7.80
2018-12-18T11:14:26.174Z,7.90
2018-12-18T11:17:04.677Z,7.80
2018-12-18T11:19:52.177Z,7.80
2018-12-18T11:22:41.078Z,7.90
2018-12-18T11:25:22.361Z,7.90
2018-12-18T11:28:04.831Z,8.00
2018-12-18T11:30:52.850Z,8.00
2018-12-18T11:36:53.586Z,7.80
2018-12-18T11:39:31.745Z,7.70
2018-12-18T11:42:17.698Z,7.70
2018-12-18T11:44:55.300Z,7.70
2018-12-18T11:47:42.686Z,7.60
2018-12-18T11:50:20.328Z,7.60
2018-12-18T11:53:08.420Z,7.60
2018-12-18T11:55:51.422Z,7.60
2018-12-18T11:58:40.679Z,7.60
2018-12-18T12:01:20.754Z,7.60
2018-12-18T12:04:06.986Z,7.60
2018-12-18T12:06:44.855Z,7.70
2018-12-18T12:09:23.726Z,7.70
2018-12-18T12:15:21.562Z,7.70
2018-12-18T12:18:04.130Z,7.70
2018-12-18T12:20:46.554Z,7.80
2018-12-18T12:23:34.603Z,7.80
2018-12-18T12:26:17.641Z,7.80
2018-12-18T12:28:54.762Z,7.90
2018-12-18T12:34:50.557Z,7.90
2018-12-18T12:37:28.988Z,7.90
2018-12-18T12:40:14.180Z,7.80
2018-12-18T12:42:50.643Z,7.70
2018-12-18T12:45:39.966Z,7.80
2018-12-18T12:48:19.256Z,7.80
2018-12-18T12:50:56.867Z,7.80
2018-12-18T12:53:35.571Z,7.80
2018-12-18T12:59:31.406Z,7.60
2018-12-18T13:02:13.544Z,7.50
2018-12-18T13:04:58.163Z,7.50
2018-12-18T13:07:43.967Z,7.50
2018-12-18T13:10:21.096Z,7.50
2018-12-18T13:16:21.940Z,7.50
2018-12-18T13:19:02.799Z,7.60
2018-12-18T13:21:49.700Z,7.60
2018-12-18T13:24:37.640Z,7.60
2018-12-18T13:27:28.387Z,7.50
2018-12-18T13:30:10.313Z,7.50
2018-12-18T13:32:51.631Z,7.40
2018-12-18T13:35:37.669Z,7.40
2018-12-18T13:38:17.161Z,7.30
2018-12-18T13:40:54.442Z,7.20
2018-12-18T13:43:41.136Z,7.20
2018-12-18T13:46:24.210Z,7.20
2018-12-18T13:52:09.725Z,7.30
2018-12-18T13:54:57.361Z,7.30
2018-12-18T13:57:49.679Z,7.40
2018-12-18T14:00:37.524Z,7.30
2018-12-18T14:03:16.746Z,7.30
2018-12-18T14:06:02.147Z,7.30
2018-12-18T14:11:42.818Z,7.30
2018-12-18T14:14:26.576Z,7.30
2018-12-18T14:17:12.268Z,7.30
2018-12-18T14:19:50.949Z,7.20
2018-12-18T14:25:47.033Z,7.20
2018-12-18T14:28:32.576Z,7.10
2018-12-18T14:31:12.311Z,7.10
2018-12-18T14:37:02.996Z,7.10
2018-12-18T14:39:47.012Z,7.00
2018-12-18T14:42:28.714Z,6.90
2018-12-18T14:45:04.970Z,6.80
2018-12-18T14:47:45.484Z,6.80
2018-12-18T14:50:35.235Z,6.80
2018-12-18T14:53:18.689Z,6.80
2018-12-18T14:55:58.482Z,6.80
2018-12-18T14:58:45.011Z,6.80
2018-12-18T15:01:24.908Z,6.80
2018-12-18T15:04:04.598Z,6.80
2018-12-18T15:06:45.821Z,6.80
2018-12-18T15:09:32.000Z,6.70
2018-12-18T15:12:08.732Z,6.70
2018-12-18T15:14:46.134Z,6.70
2018-12-18T15:17:31.404Z,6.70
2018-12-18T15:20:14.479Z,6.70
2018-12-18T15:25:30.577Z,6.70
2018-12-18T15:28:19.153Z,6.70
2018-12-18T15:33:57.701Z,6.60
2018-12-18T15:36:44.868Z,6.60
2018-12-18T15:39:32.421Z,6.60
2018-12-18T15:42:22.564Z,6.60
2018-12-18T15:45:15.209Z,6.50
2018-12-18T15:48:07.116Z,6.60
2018-12-18T15:50:44.886Z,6.50
2018-12-18T15:53:28.511Z,6.50
2018-12-18T15:56:07.765Z,6.50
2018-12-18T15:58:45.333Z,6.40
2018-12-18T16:01:24.692Z,6.40
2018-12-18T16:04:09.149Z,6.40
2018-12-18T16:06:55.936Z,6.40
2018-12-18T16:09:41.315Z,6.40
2018-12-18T16:12:28.850Z,6.40
2018-12-18T16:15:16.617Z,6.40
2018-12-18T16:17:58.150Z,6.40
2018-12-18T16:23:48.520Z,6.40
2018-12-18T16:26:26.170Z,6.40
2018-12-18T16:32:16.418Z,6.40
2018-12-18T16:34:59.186Z,6.30
2018-12-18T16:37:45.097Z,6.40
2018-12-18T16:40:33.964Z,6.30
2018-12-18T16:43:11.111Z,6.30
2018-12-18T16:45:56.485Z,6.30
2018-12-18T16:48:43.355Z,6.30
2018-12-18T16:51:30.589Z,6.20
2018-12-18T16:54:16.129Z,6.20
2018-12-18T16:56:58.715Z,6.20
2018-12-18T16:59:47.560Z,6.10
2018-12-18T17:02:28.350Z,6.10
2018-12-18T17:05:18.046Z,5.90
2018-12-18T17:14:20.925Z,5.40
2018-12-18T17:17:06.318Z,5.20
2018-12-18T17:19:53.838Z,5.10
2018-12-18T17:22:31.651Z,4.90
2018-12-18T17:25:20.827Z,4.80
2018-12-18T17:28:10.612Z,4.70
2018-12-18T17:30:51.219Z,4.70
2018-12-18T17:33:29.533Z,4.60
2018-12-18T17:36:09.296Z,4.50
2018-12-18T17:38:51.631Z,4.50
2018-12-18T17:41:38.199Z,4.40
2018-12-18T17:44:25.466Z,4.40
2018-12-18T17:47:03.013Z,4.40
2018-12-18T17:49:49.625Z,4.40
2018-12-18T17:52:39.076Z,4.30
2018-12-18T17:55:25.709Z,4.30
2018-12-18T17:58:10.818Z,4.20
2018-12-18T18:01:03.123Z,4.20
2018-12-18T18:03:44.662Z,4.20
2018-12-18T18:06:30.604Z,4.10
2018-12-18T18:09:18.583Z,4.00
2018-12-18T18:11:59.256Z,4.00
2018-12-18T18:14:44.758Z,3.90
2018-12-18T18:17:30.950Z,3.90
2018-12-18T18:20:23.200Z,3.90
2018-12-18T18:23:00.498Z,3.80
2018-12-18T18:25:42.300Z,3.70
2018-12-18T18:28:28.789Z,3.70
2018-12-18T18:31:09.868Z,3.70
2018-12-18T18:33:48.833Z,3.70
2018-12-18T18:36:28.455Z,3.70
2018-12-18T18:39:07.180Z,3.60
2018-12-18T18:47:52.204Z,3.50
2018-12-18T18:53:37.949Z,3.50
2018-12-18T18:56:23.746Z,3.40
2018-12-18T18:59:01.326Z,3.40
2018-12-18T19:01:38.698Z,3.30
2018-12-18T19:04:15.944Z,3.20
2018-12-18T19:06:53.122Z,3.20
2018-12-18T19:09:38.949Z,3.20
2018-12-18T19:12:25.220Z,3.20
2018-12-18T19:15:13.108Z,3.10
2018-12-18T19:20:50.031Z,3.00
2018-12-18T19:23:41.227Z,3.00
2018-12-18T19:26:29.104Z,3.00
2018-12-18T19:29:10.928Z,3.00
2018-12-18T19:31:56.721Z,3.00
2018-12-18T19:34:40.301Z,2.90
2018-12-18T19:37:27.811Z,2.90
2018-12-18T19:43:10.244Z,2.80
2018-12-18T19:45:48.124Z,2.80
2018-12-18T19:48:30.469Z,2.80
2018-12-18T19:51:16.756Z,2.70
2018-12-18T19:57:10.966Z,2.60
2018-12-18T19:59:59.072Z,2.60
2018-12-18T20:02:48.208Z,2.50
2018-12-18T20:05:30.177Z,2.50
2018-12-18T20:11:24.891Z,2.50
2018-12-18T20:49:58.262Z,2.30
2018-12-18T21:05:23.793Z,2.30
2018-12-18T21:11:20.524Z,2.20
2018-12-18T21:17:07.408Z,2.10
2018-12-18T21:19:55.525Z,2.10
2018-12-18T21:38:30.255Z,2.00
2018-12-18T21:44:17.712Z,2.00
2018-12-18T22:15:08.942Z,1.80
